sensor_id;sensor_type;location;lat;lon;timestamp;pressure;altitude;pressure_sealevel;temperature
70819;BMP280;58439;51.046;13.692;2022-08-30T00:02:09;100618.84;;;15.13
70819;BMP280;58439;51.046;13.692;2022-08-30T00:04:36;100620.69;;;15.13
70819;BMP280;58439;51.046;13.692;2022-08-30T00:07:03;100625.16;;;15.05
70819;BMP280;58439;51.046;13.692;2022-08-30T00:09:31;100621.97;;;14.97
70819;BMP280;58439;51.046;13.692;2022-08-30T00:11:58;100625.63;;;14.89
70819;BMP280;58439;51.046;13.692;2022-08-30T00:14:25;100623.25;;;14.81
70819;BMP280;58439;51.046;13.692;2022-08-30T00:16:53;100617.19;;;14.74
70819;BMP280;58439;51.046;13.692;2022-08-30T00:19:20;100614.97;;;14.71
70819;BMP280;58439;51.046;13.692;2022-08-30T00:21:47;100610.50;;;14.71
70819;BMP280;58439;51.046;13.692;2022-08-30T00:24:13;100618.19;;;14.73
70819;BMP280;58439;51.046;13.692;2022-08-30T00:26:40;100613.75;;;14.73
70819;BMP280;58439;51.046;13.692;2022-08-30T00:29:07;100613.31;;;14.76
70819;BMP280;58439;51.046;13.692;2022-08-30T00:31:34;100616.16;;;14.82
70819;BMP280;58439;51.046;13.692;2022-08-30T00:34:02;100610.69;;;14.83
70819;BMP280;58439;51.046;13.692;2022-08-30T00:36:29;100615.56;;;14.80
70819;BMP280;58439;51.046;13.692;2022-08-30T00:38:56;100626.72;;;14.68
70819;BMP280;58439;51.046;13.692;2022-08-30T00:41:23;100627.16;;;14.59
70819;BMP280;58439;51.046;13.692;2022-08-30T00:43:50;100626.13;;;14.53
70819;BMP280;58439;51.046;13.692;2022-08-30T00:46:17;100628.75;;;14.46
70819;BMP280;58439;51.046;13.692;2022-08-30T00:48:46;100623.31;;;14.41
70819;BMP280;58439;51.046;13.692;2022-08-30T00:51:15;100623.31;;;14.41
70819;BMP280;58439;51.046;13.692;2022-08-30T00:53:46;100630.00;;;14.51
70819;BMP280;58439;51.046;13.692;2022-08-30T00:56:14;100627.56;;;14.56
70819;BMP280;58439;51.046;13.692;2022-08-30T00:58:45;100623.50;;;14.60
70819;BMP280;58439;51.046;13.692;2022-08-30T01:01:13;100622.09;;;14.64
70819;BMP280;58439;51.046;13.692;2022-08-30T01:03:41;100619.84;;;14.67
70819;BMP280;58439;51.046;13.692;2022-08-30T01:06:09;100616.59;;;14.65
70819;BMP280;58439;51.046;13.692;2022-08-30T01:08:36;100613.38;;;14.50
70819;BMP280;58439;51.046;13.692;2022-08-30T01:11:05;100617.66;;;14.44
70819;BMP280;58439;51.046;13.692;2022-08-30T01:13:32;100614.84;;;14.39
70819;BMP280;58439;51.046;13.692;2022-08-30T01:16:01;100621.94;;;14.32
70819;BMP280;58439;51.046;13.692;2022-08-30T01:18:28;100615.44;;;14.28
70819;BMP280;58439;51.046;13.692;2022-08-30T01:21:19;100621.94;;;14.32
70819;BMP280;58439;51.046;13.692;2022-08-30T01:23:50;100609.16;;;14.36
70819;BMP280;58439;51.046;13.692;2022-08-30T01:26:20;100617.69;;;14.31
70819;BMP280;58439;51.046;13.692;2022-08-30T01:28:53;100605.50;;;14.30
70819;BMP280;58439;51.046;13.692;2022-08-30T01:31:21;100610.97;;;14.29
70819;BMP280;58439;51.046;13.692;2022-08-30T01:33:48;100609.16;;;14.23
70819;BMP280;58439;51.046;13.692;2022-08-30T01:36:17;100617.88;;;14.23
70819;BMP280;58439;51.046;13.692;2022-08-30T01:38:51;100613.44;;;14.24
70819;BMP280;58439;51.046;13.692;2022-08-30T01:41:22;100621.75;;;14.27
70819;BMP280;58439;51.046;13.692;2022-08-30T01:43:51;100617.06;;;14.29
70819;BMP280;58439;51.046;13.692;2022-08-30T01:46:21;100622.53;;;14.21
70819;BMP280;58439;51.046;13.692;2022-08-30T01:48:52;100624.75;;;14.11
70819;BMP280;58439;51.046;13.692;2022-08-30T01:51:22;100625.16;;;14.01
70819;BMP280;58439;51.046;13.692;2022-08-30T01:53:49;100625.78;;;13.97
70819;BMP280;58439;51.046;13.692;2022-08-30T01:56:17;100620.72;;;14.02
70819;BMP280;58439;51.046;13.692;2022-08-30T01:58:44;100624.34;;;14.14
70819;BMP280;58439;51.046;13.692;2022-08-30T02:01:14;100625.97;;;14.22
70819;BMP280;58439;51.046;13.692;2022-08-30T02:03:42;100628.81;;;14.20
70819;BMP280;58439;51.046;13.692;2022-08-30T02:06:13;100622.31;;;14.16
70819;BMP280;58439;51.046;13.692;2022-08-30T02:08:41;100620.72;;;14.15
70819;BMP280;58439;51.046;13.692;2022-08-30T02:11:10;100628.41;;;14.16
70819;BMP280;58439;51.046;13.692;2022-08-30T02:13:38;100619.69;;;14.23
70819;BMP280;58439;51.046;13.692;2022-08-30T02:16:09;100615.03;;;14.25
70819;BMP280;58439;51.046;13.692;2022-08-30T02:18:37;100622.13;;;14.24
70819;BMP280;58439;51.046;13.692;2022-08-30T02:21:06;100621.75;;;14.21
70819;BMP280;58439;51.046;13.692;2022-08-30T02:23:34;100626.19;;;14.20
70819;BMP280;58439;51.046;13.692;2022-08-30T02:26:02;100614.63;;;14.14
70819;BMP280;58439;51.046;13.692;2022-08-30T02:28:29;100616.84;;;14.11
70819;BMP280;58439;51.046;13.692;2022-08-30T02:30:56;100619.47;;;14.11
70819;BMP280;58439;51.046;13.692;2022-08-30T02:33:23;100612.84;;;14.08
70819;BMP280;58439;51.046;13.692;2022-08-30T02:35:50;100615.84;;;14.05
70819;BMP280;58439;51.046;13.692;2022-08-30T02:38:17;100617.66;;;13.98
70819;BMP280;58439;51.046;13.692;2022-08-30T02:40:45;100615.03;;;13.92
70819;BMP280;58439;51.046;13.692;2022-08-30T02:43:13;100619.91;;;13.88
70819;BMP280;58439;51.046;13.692;2022-08-30T02:45:40;100613.59;;;13.82
70819;BMP280;58439;51.046;13.692;2022-08-30T02:48:08;100620.09;;;13.80
70819;BMP280;58439;51.046;13.692;2022-08-30T02:50:43;100616.88;;;13.84
70819;BMP280;58439;51.046;13.692;2022-08-30T02:53:10;100621.31;;;13.91
70819;BMP280;58439;51.046;13.692;2022-08-30T02:55:37;100619.47;;;13.98
70819;BMP280;58439;51.046;13.692;2022-08-30T02:58:04;100613.22;;;13.92
70819;BMP280;58439;51.046;13.692;2022-08-30T03:00:31;100619.09;;;13.87
70819;BMP280;58439;51.046;13.692;2022-08-30T03:02:59;100616.63;;;13.86
70819;BMP280;58439;51.046;13.692;2022-08-30T03:05:26;100622.13;;;13.78
70819;BMP280;58439;51.046;13.692;2022-08-30T03:07:54;100627.13;;;13.66
70819;BMP280;58439;51.046;13.692;2022-08-30T03:10:21;100624.09;;;13.56
70819;BMP280;58439;51.046;13.692;2022-08-30T03:12:48;100624.06;;;13.49
70819;BMP280;58439;51.046;13.692;2022-08-30T03:15:16;100627.50;;;13.50
70819;BMP280;58439;51.046;13.692;2022-08-30T03:17:43;100619.22;;;13.59
70819;BMP280;58439;51.046;13.692;2022-08-30T03:20:11;100616.59;;;13.66
70819;BMP280;58439;51.046;13.692;2022-08-30T03:22:38;100620.84;;;13.67
70819;BMP280;58439;51.046;13.692;2022-08-30T03:25:06;100622.66;;;13.67
70819;BMP280;58439;51.046;13.692;2022-08-30T03:27:33;100624.28;;;13.68
70819;BMP280;58439;51.046;13.692;2022-08-30T03:30:01;100619.22;;;13.66
70819;BMP280;58439;51.046;13.692;2022-08-30T03:32:27;100615.19;;;13.64
70819;BMP280;58439;51.046;13.692;2022-08-30T03:34:54;100612.75;;;13.62
70819;BMP280;58439;51.046;13.692;2022-08-30T03:37:22;100605.88;;;13.61
70819;BMP280;58439;51.046;13.692;2022-08-30T03:39:54;100615.41;;;13.62
70819;BMP280;58439;51.046;13.692;2022-08-30T03:42:21;100618.03;;;13.62
70819;BMP280;58439;51.046;13.692;2022-08-30T03:44:47;100610.13;;;13.62
70819;BMP280;58439;51.046;13.692;2022-08-30T03:47:15;100611.56;;;13.58
70819;BMP280;58439;51.046;13.692;2022-08-30T03:49:42;100611.94;;;13.48
70819;BMP280;58439;51.046;13.692;2022-08-30T03:52:09;100611.91;;;13.42
70819;BMP280;58439;51.046;13.692;2022-08-30T03:54:36;100606.66;;;13.42
70819;BMP280;58439;51.046;13.692;2022-08-30T03:57:04;100601.22;;;13.50
70819;BMP280;58439;51.046;13.692;2022-08-30T03:59:32;100605.06;;;13.54
70819;BMP280;58439;51.046;13.692;2022-08-30T04:01:59;100616.19;;;13.49
70819;BMP280;58439;51.046;13.692;2022-08-30T04:04:27;100612.72;;;13.42
70819;BMP280;58439;51.046;13.692;2022-08-30T04:06:54;100611.28;;;13.40
70819;BMP280;58439;51.046;13.692;2022-08-30T04:09:21;100610.72;;;13.44
70819;BMP280;58439;51.046;13.692;2022-08-30T04:11:48;100611.09;;;13.48
70819;BMP280;58439;51.046;13.692;2022-08-30T04:14:16;100616.56;;;13.46
70819;BMP280;58439;51.046;13.692;2022-08-30T04:16:44;100612.91;;;13.41
70819;BMP280;58439;51.046;13.692;2022-08-30T04:19:11;100623.22;;;13.42
70819;BMP280;58439;51.046;13.692;2022-08-30T04:21:37;100617.19;;;13.48
70819;BMP280;58439;51.046;13.692;2022-08-30T04:24:08;100611.94;;;13.55
70819;BMP280;58439;51.046;13.692;2022-08-30T04:26:35;100618.84;;;13.56
70819;BMP280;58439;51.046;13.692;2022-08-30T04:29:02;100626.91;;;13.61
70819;BMP280;58439;51.046;13.692;2022-08-30T04:31:29;100624.28;;;13.61
70819;BMP280;58439;51.046;13.692;2022-08-30T04:33:57;100629.53;;;13.61
70819;BMP280;58439;51.046;13.692;2022-08-30T04:36:24;100628.75;;;13.74
70819;BMP280;58439;51.046;13.692;2022-08-30T04:38:51;100633.84;;;13.82
70819;BMP280;58439;51.046;13.692;2022-08-30T04:41:19;100636.47;;;13.82
70819;BMP280;58439;51.046;13.692;2022-08-30T04:43:47;100645.16;;;13.82
70819;BMP280;58439;51.046;13.692;2022-08-30T04:46:18;100643.38;;;13.89
70819;BMP280;58439;51.046;13.692;2022-08-30T04:48:45;100646.81;;;13.97
70819;BMP280;58439;51.046;13.692;2022-08-30T04:51:14;100645.78;;;13.98
70819;BMP280;58439;51.046;13.692;2022-08-30T04:53:43;100651.06;;;14.04
70819;BMP280;58439;51.046;13.692;2022-08-30T04:56:14;100644.16;;;14.10
70819;BMP280;58439;51.046;13.692;2022-08-30T04:58:47;100654.50;;;14.18
70819;BMP280;58439;51.046;13.692;2022-08-30T05:01:22;100653.72;;;14.24
70819;BMP280;58439;51.046;13.692;2022-08-30T05:03:51;100652.50;;;14.33
70819;BMP280;58439;51.046;13.692;2022-08-30T05:06:20;100652.28;;;14.35
70819;BMP280;58439;51.046;13.692;2022-08-30T05:09:07;100656.34;;;14.37
70819;BMP280;58439;51.046;13.692;2022-08-30T05:11:34;100655.53;;;14.37
70819;BMP280;58439;51.046;13.692;2022-08-30T05:14:01;100671.31;;;14.43
70819;BMP280;58439;51.046;13.692;2022-08-30T05:16:28;100668.50;;;14.45
70819;BMP280;58439;51.046;13.692;2022-08-30T05:18:55;100672.13;;;14.51
70819;BMP280;58439;51.046;13.692;2022-08-30T05:21:27;100668.09;;;14.55
70819;BMP280;58439;51.046;13.692;2022-08-30T05:23:56;100669.69;;;14.56
70819;BMP280;58439;51.046;13.692;2022-08-30T05:26:29;100668.44;;;14.65
70819;BMP280;58439;51.046;13.692;2022-08-30T05:28:57;100672.50;;;14.74
70819;BMP280;58439;51.046;13.692;2022-08-30T05:31:27;100671.25;;;14.83
70819;BMP280;58439;51.046;13.692;2022-08-30T05:33:55;100680.41;;;14.87
70819;BMP280;58439;51.046;13.692;2022-08-30T05:36:30;100680.16;;;15.02
70819;BMP280;58439;51.046;13.692;2022-08-30T05:38:59;100679.94;;;15.10
70819;BMP280;58439;51.046;13.692;2022-08-30T05:41:27;100679.25;;;15.21
70819;BMP280;58439;51.046;13.692;2022-08-30T05:43:59;100674.56;;;15.30
70819;BMP280;58439;51.046;13.692;2022-08-30T05:46:28;100679.59;;;15.38
70819;BMP280;58439;51.046;13.692;2022-08-30T05:49:08;100673.03;;;15.54
70819;BMP280;58439;51.046;13.692;2022-08-30T05:51:39;100681.09;;;15.65
70819;BMP280;58439;51.046;13.692;2022-08-30T05:54:11;100675.28;;;15.82
70819;BMP280;58439;51.046;13.692;2022-08-30T05:56:44;100673.59;;;15.94
70819;BMP280;58439;51.046;13.692;2022-08-30T05:59:14;100678.38;;;16.04
70819;BMP280;58439;51.046;13.692;2022-08-30T06:01:43;100680.53;;;16.13
70819;BMP280;58439;51.046;13.692;2022-08-30T06:04:12;100684.78;;;16.64
70819;BMP280;58439;51.046;13.692;2022-08-30T06:06:41;100692.31;;;17.45
70819;BMP280;58439;51.046;13.692;2022-08-30T06:09:10;100684.81;;;17.31
70819;BMP280;58439;51.046;13.692;2022-08-30T06:11:41;100681.81;;;17.09
70819;BMP280;58439;51.046;13.692;2022-08-30T06:14:09;100690.78;;;17.08
70819;BMP280;58439;51.046;13.692;2022-08-30T06:16:37;100688.50;;;17.11
70819;BMP280;58439;51.046;13.692;2022-08-30T06:19:07;100681.38;;;17.12
70819;BMP280;58439;51.046;13.692;2022-08-30T06:21:39;100685.41;;;17.14
70819;BMP280;58439;51.046;13.692;2022-08-30T06:24:11;100677.81;;;17.18
70819;BMP280;58439;51.046;13.692;2022-08-30T06:26:41;100675.09;;;17.25
70819;BMP280;58439;51.046;13.692;2022-08-30T06:29:10;100685.59;;;17.31
70819;BMP280;58439;51.046;13.692;2022-08-30T06:31:42;100684.25;;;17.40
70819;BMP280;58439;51.046;13.692;2022-08-30T06:34:13;100683.69;;;17.50
70819;BMP280;58439;51.046;13.692;2022-08-30T06:36:41;100681.06;;;17.62
70819;BMP280;58439;51.046;13.692;2022-08-30T06:39:08;100682.84;;;17.68
70819;BMP280;58439;51.046;13.692;2022-08-30T06:41:38;100674.81;;;17.74
70819;BMP280;58439;51.046;13.692;2022-08-30T06:44:16;100678.28;;;17.87
70819;BMP280;58439;51.046;13.692;2022-08-30T06:46:44;100672.22;;;17.98
70819;BMP280;58439;51.046;13.692;2022-08-30T06:49:11;100679.19;;;17.92
70819;BMP280;58439;51.046;13.692;2022-08-30T06:51:39;100670.03;;;17.95
70819;BMP280;58439;51.046;13.692;2022-08-30T06:54:07;100666.91;;;18.10
70819;BMP280;58439;51.046;13.692;2022-08-30T06:56:40;100669.22;;;18.18
70819;BMP280;58439;51.046;13.692;2022-08-30T06:59:21;100677.50;;;18.33
70819;BMP280;58439;51.046;13.692;2022-08-30T07:01:48;100672.16;;;18.45
70819;BMP280;58439;51.046;13.692;2022-08-30T07:04:16;100673.66;;;18.52
70819;BMP280;58439;51.046;13.692;2022-08-30T07:06:44;100676.53;;;18.62
70819;BMP280;58439;51.046;13.692;2022-08-30T07:09:11;100667.63;;;18.68
70819;BMP280;58439;51.046;13.692;2022-08-30T07:11:38;100674.75;;;18.80
70819;BMP280;58439;51.046;13.692;2022-08-30T07:14:06;100668.63;;;18.91
70819;BMP280;58439;51.046;13.692;2022-08-30T07:16:37;100667.19;;;19.00
70819;BMP280;58439;51.046;13.692;2022-08-30T07:19:05;100676.16;;;19.11
70819;BMP280;58439;51.046;13.692;2022-08-30T07:21:35;100682.13;;;19.18
70819;BMP280;58439;51.046;13.692;2022-08-30T07:24:06;100687.03;;;19.26
70819;BMP280;58439;51.046;13.692;2022-08-30T07:26:42;100680.66;;;19.39
70819;BMP280;58439;51.046;13.692;2022-08-30T07:29:12;100685.97;;;19.39
70819;BMP280;58439;51.046;13.692;2022-08-30T07:31:39;100685.88;;;19.50
70819;BMP280;58439;51.046;13.692;2022-08-30T07:34:08;100698.16;;;19.68
70819;BMP280;58439;51.046;13.692;2022-08-30T07:36:37;100700.47;;;19.81
70819;BMP280;58439;51.046;13.692;2022-08-30T07:39:05;100701.13;;;19.88
70819;BMP280;58439;51.046;13.692;2022-08-30T07:41:34;100696.94;;;19.92
70819;BMP280;58439;51.046;13.692;2022-08-30T07:44:07;100700.78;;;19.85
70819;BMP280;58439;51.046;13.692;2022-08-30T07:46:37;100705.88;;;19.86
70819;BMP280;58439;51.046;13.692;2022-08-30T07:49:04;100700.16;;;19.94
70819;BMP280;58439;51.046;13.692;2022-08-30T07:51:34;100703.69;;;20.17
70819;BMP280;58439;51.046;13.692;2022-08-30T07:54:11;100695.84;;;20.27
70819;BMP280;58439;51.046;13.692;2022-08-30T07:56:56;100701.38;;;20.42
70819;BMP280;58439;51.046;13.692;2022-08-30T07:59:43;100702.56;;;20.51
70819;BMP280;58439;51.046;13.692;2022-08-30T08:02:29;100704.19;;;20.57
70819;BMP280;58439;51.046;13.692;2022-08-30T08:05:29;100699.34;;;20.71
70819;BMP280;58439;51.046;13.692;2022-08-30T08:07:56;100697.50;;;20.72
70819;BMP280;58439;51.046;13.692;2022-08-30T08:10:24;100694.09;;;20.81
70819;BMP280;58439;51.046;13.692;2022-08-30T08:12:51;100691.63;;;20.97
70819;BMP280;58439;51.046;13.692;2022-08-30T08:15:18;100690.47;;;21.09
70819;BMP280;58439;51.046;13.692;2022-08-30T08:17:46;100687.13;;;21.24
70819;BMP280;58439;51.046;13.692;2022-08-30T08:20:14;100682.66;;;21.30
70819;BMP280;58439;51.046;13.692;2022-08-30T08:22:42;100694.34;;;21.29
70819;BMP280;58439;51.046;13.692;2022-08-30T08:25:09;100708.38;;;21.46
70819;BMP280;58439;51.046;13.692;2022-08-30T08:27:36;100699.91;;;21.59
70819;BMP280;58439;51.046;13.692;2022-08-30T08:30:06;100697.59;;;21.68
70819;BMP280;58439;51.046;13.692;2022-08-30T08:32:34;100696.28;;;21.65
70819;BMP280;58439;51.046;13.692;2022-08-30T08:35:01;100702.13;;;21.67
70819;BMP280;58439;51.046;13.692;2022-08-30T08:37:28;100701.53;;;21.92
70819;BMP280;58439;51.046;13.692;2022-08-30T08:39:56;100699.09;;;21.96
70819;BMP280;58439;51.046;13.692;2022-08-30T08:42:32;100695.41;;;21.97
70819;BMP280;58439;51.046;13.692;2022-08-30T08:45:14;100700.97;;;21.90
70819;BMP280;58439;51.046;13.692;2022-08-30T08:48:00;100692.28;;;22.15
70819;BMP280;58439;51.046;13.692;2022-08-30T08:50:30;100691.31;;;22.31
70819;BMP280;58439;51.046;13.692;2022-08-30T08:53:17;100693.25;;;22.46
70819;BMP280;58439;51.046;13.692;2022-08-30T08:56:14;100694.63;;;22.59
70819;BMP280;58439;51.046;13.692;2022-08-30T08:58:46;100685.59;;;22.70
70819;BMP280;58439;51.046;13.692;2022-08-30T09:01:16;100692.56;;;22.71
70819;BMP280;58439;51.046;13.692;2022-08-30T09:03:44;100686.69;;;22.69
70819;BMP280;58439;51.046;13.692;2022-08-30T09:09:12;100685.28;;;22.61
70819;BMP280;58439;51.046;13.692;2022-08-30T09:11:40;100680.53;;;22.68
70819;BMP280;58439;51.046;13.692;2022-08-30T09:14:18;100684.53;;;22.61
70819;BMP280;58439;51.046;13.692;2022-08-30T09:17:16;100686.16;;;22.82
70819;BMP280;58439;51.046;13.692;2022-08-30T09:22:30;100686.47;;;23.11
70819;BMP280;58439;51.046;13.692;2022-08-30T09:25:06;100676.06;;;23.20
70819;BMP280;58439;51.046;13.692;2022-08-30T09:27:45;100679.25;;;23.37
70819;BMP280;58439;51.046;13.692;2022-08-30T09:30:27;100676.56;;;23.57
70819;BMP280;58439;51.046;13.692;2022-08-30T09:35:35;100673.88;;;23.77
70819;BMP280;58439;51.046;13.692;2022-08-30T09:38:30;100677.59;;;23.92
70819;BMP280;58439;51.046;13.692;2022-08-30T09:41:40;100678.13;;;23.99
70819;BMP280;58439;51.046;13.692;2022-08-30T09:44:20;100680.81;;;23.83
70819;BMP280;58439;51.046;13.692;2022-08-30T09:46:59;100681.34;;;23.91
70819;BMP280;58439;51.046;13.692;2022-08-30T09:49:39;100675.91;;;24.11
70819;BMP280;58439;51.046;13.692;2022-08-30T09:52:12;100667.78;;;24.36
70819;BMP280;58439;51.046;13.692;2022-08-30T09:57:36;100657.44;;;24.69
70819;BMP280;58439;51.046;13.692;2022-08-30T10:00:16;100648.72;;;24.43
70819;BMP280;58439;51.046;13.692;2022-08-30T10:06:27;100652.06;;;24.69
70819;BMP280;58439;51.046;13.692;2022-08-30T10:09:15;100653.66;;;25.33
70819;BMP280;58439;51.046;13.692;2022-08-30T10:11:56;100667.03;;;25.85
70819;BMP280;58439;51.046;13.692;2022-08-30T10:14:36;100661.06;;;25.46
70819;BMP280;58439;51.046;13.692;2022-08-30T10:17:17;100654.81;;;25.27
70819;BMP280;58439;51.046;13.692;2022-08-30T10:22:59;100660.31;;;25.11
70819;BMP280;58439;51.046;13.692;2022-08-30T10:25:36;100651.84;;;24.99
70819;BMP280;58439;51.046;13.692;2022-08-30T10:28:12;100657.59;;;25.16
70819;BMP280;58439;51.046;13.692;2022-08-30T10:30:50;100659.13;;;25.51
70819;BMP280;58439;51.046;13.692;2022-08-30T10:33:33;100652.13;;;26.17
70819;BMP280;58439;51.046;13.692;2022-08-30T10:36:07;100647.06;;;26.53
70819;BMP280;58439;51.046;13.692;2022-08-30T10:38:43;100641.69;;;27.04
70819;BMP280;58439;51.046;13.692;2022-08-30T10:44:16;100641.56;;;27.91
70819;BMP280;58439;51.046;13.692;2022-08-30T10:49:26;100646.06;;;28.18
70819;BMP280;58439;51.046;13.692;2022-08-30T10:54:48;100641.25;;;35.22
70819;BMP280;58439;51.046;13.692;2022-08-30T10:57:17;100636.34;;;37.94
70819;BMP280;58439;51.046;13.692;2022-08-30T10:59:53;100642.16;;;39.41
70819;BMP280;58439;51.046;13.692;2022-08-30T11:13:43;100641.84;;;31.29
70819;BMP280;58439;51.046;13.692;2022-08-30T11:16:17;100645.72;;;30.09
70819;BMP280;58439;51.046;13.692;2022-08-30T11:18:57;100633.06;;;29.27
70819;BMP280;58439;51.046;13.692;2022-08-30T11:21:34;100635.69;;;29.01
70819;BMP280;58439;51.046;13.692;2022-08-30T11:32:20;100627.34;;;31.54
70819;BMP280;58439;51.046;13.692;2022-08-30T11:37:38;100622.88;;;29.72
70819;BMP280;58439;51.046;13.692;2022-08-30T11:42:49;100616.13;;;28.64
70819;BMP280;58439;51.046;13.692;2022-08-30T11:48:03;100622.22;;;29.58
70819;BMP280;58439;51.046;13.692;2022-08-30T11:50:51;100620.75;;;29.43
70819;BMP280;58439;51.046;13.692;2022-08-30T11:53:51;100616.03;;;34.70
70819;BMP280;58439;51.046;13.692;2022-08-30T11:56:29;100624.72;;;38.69
70819;BMP280;58439;51.046;13.692;2022-08-30T11:59:06;100629.25;;;39.30
70819;BMP280;58439;51.046;13.692;2022-08-30T12:01:37;100619.91;;;39.78
70819;BMP280;58439;51.046;13.692;2022-08-30T12:17:15;100606.19;;;44.19
70819;BMP280;58439;51.046;13.692;2022-08-30T12:20:13;100608.41;;;43.89
70819;BMP280;58439;51.046;13.692;2022-08-30T12:22:42;100611.63;;;40.06
70819;BMP280;58439;51.046;13.692;2022-08-30T12:25:19;100604.84;;;36.66
70819;BMP280;58439;51.046;13.692;2022-08-30T12:27:48;100602.84;;;33.94
70819;BMP280;58439;51.046;13.692;2022-08-30T12:30:26;100601.16;;;32.00
70819;BMP280;58439;51.046;13.692;2022-08-30T12:32:54;100592.00;;;30.80
70819;BMP280;58439;51.046;13.692;2022-08-30T12:35:24;100598.09;;;30.04
70819;BMP280;58439;51.046;13.692;2022-08-30T12:38:02;100597.44;;;29.56
70819;BMP280;58439;51.046;13.692;2022-08-30T12:40:31;100586.63;;;29.38
70819;BMP280;58439;51.046;13.692;2022-08-30T12:43:04;100594.16;;;30.57
70819;BMP280;58439;51.046;13.692;2022-08-30T12:45:36;100582.31;;;32.61
70819;BMP280;58439;51.046;13.692;2022-08-30T12:48:11;100583.56;;;37.09
70819;BMP280;58439;51.046;13.692;2022-08-30T12:50:49;100590.41;;;37.66
70819;BMP280;58439;51.046;13.692;2022-08-30T12:56:02;100583.00;;;35.26
70819;BMP280;58439;51.046;13.692;2022-08-30T13:01:28;100579.72;;;30.62
70819;BMP280;58439;51.046;13.692;2022-08-30T13:04:02;100584.13;;;29.68
70819;BMP280;58439;51.046;13.692;2022-08-30T13:06:47;100582.06;;;28.60
70819;BMP280;58439;51.046;13.692;2022-08-30T13:09:33;100579.16;;;28.03
70819;BMP280;58439;51.046;13.692;2022-08-30T13:12:06;100575.66;;;27.67
70819;BMP280;58439;51.046;13.692;2022-08-30T13:14:39;100570.47;;;27.70
70819;BMP280;58439;51.046;13.692;2022-08-30T13:17:23;100576.81;;;27.74
70819;BMP280;58439;51.046;13.692;2022-08-30T13:20:04;100570.84;;;27.55
70819;BMP280;58439;51.046;13.692;2022-08-30T13:22:34;100581.50;;;27.33
70819;BMP280;58439;51.046;13.692;2022-08-30T13:25:04;100568.53;;;27.21
70819;BMP280;58439;51.046;13.692;2022-08-30T13:27:33;100565.06;;;27.20
70819;BMP280;58439;51.046;13.692;2022-08-30T13:30:20;100570.53;;;27.15
70819;BMP280;58439;51.046;13.692;2022-08-30T13:32:48;100572.19;;;27.11
70819;BMP280;58439;51.046;13.692;2022-08-30T13:35:17;100569.47;;;27.16
70819;BMP280;58439;51.046;13.692;2022-08-30T13:37:44;100582.66;;;27.40
70819;BMP280;58439;51.046;13.692;2022-08-30T13:40:15;100579.63;;;27.69
70819;BMP280;58439;51.046;13.692;2022-08-30T13:42:43;100578.09;;;29.88
70819;BMP280;58439;51.046;13.692;2022-08-30T13:45:11;100576.09;;;32.36
70819;BMP280;58439;51.046;13.692;2022-08-30T13:47:58;100570.97;;;35.46
70819;BMP280;58439;51.046;13.692;2022-08-30T13:50:26;100581.09;;;35.91
70819;BMP280;58439;51.046;13.692;2022-08-30T13:52:53;100576.69;;;34.49
70819;BMP280;58439;51.046;13.692;2022-08-30T13:55:20;100574.66;;;31.73
70819;BMP280;58439;51.046;13.692;2022-08-30T13:57:47;100560.13;;;30.27
70819;BMP280;58439;51.046;13.692;2022-08-30T14:00:22;100563.31;;;28.77
70819;BMP280;58439;51.046;13.692;2022-08-30T14:02:50;100556.16;;;30.62
70819;BMP280;58439;51.046;13.692;2022-08-30T14:05:25;100565.28;;;34.78
70819;BMP280;58439;51.046;13.692;2022-08-30T14:08:17;100572.25;;;37.91
70819;BMP280;58439;51.046;13.692;2022-08-30T14:11:05;100568.00;;;37.97
70819;BMP280;58439;51.046;13.692;2022-08-30T14:13:32;100567.63;;;37.14
70819;BMP280;58439;51.046;13.692;2022-08-30T14:16:03;100567.50;;;37.37
70819;BMP280;58439;51.046;13.692;2022-08-30T14:18:50;100563.19;;;37.77
70819;BMP280;58439;51.046;13.692;2022-08-30T14:21:18;100568.56;;;39.21
70819;BMP280;58439;51.046;13.692;2022-08-30T14:23:51;100559.19;;;40.00
70819;BMP280;58439;51.046;13.692;2022-08-30T14:26:21;100559.69;;;40.68
70819;BMP280;58439;51.046;13.692;2022-08-30T14:28:49;100559.09;;;41.49
70819;BMP280;58439;51.046;13.692;2022-08-30T14:31:17;100565.59;;;42.04
70819;BMP280;58439;51.046;13.692;2022-08-30T14:33:46;100565.03;;;42.19
70819;BMP280;58439;51.046;13.692;2022-08-30T14:36:13;100557.88;;;42.56
70819;BMP280;58439;51.046;13.692;2022-08-30T14:38:42;100565.88;;;42.73
70819;BMP280;58439;51.046;13.692;2022-08-30T14:41:09;100560.97;;;42.84
70819;BMP280;58439;51.046;13.692;2022-08-30T14:43:38;100558.09;;;42.68
70819;BMP280;58439;51.046;13.692;2022-08-30T14:46:11;100560.03;;;42.71
70819;BMP280;58439;51.046;13.692;2022-08-30T14:48:38;100559.50;;;42.19
70819;BMP280;58439;51.046;13.692;2022-08-30T14:51:19;100558.16;;;42.34
70819;BMP280;58439;51.046;13.692;2022-08-30T14:53:49;100560.22;;;42.27
70819;BMP280;58439;51.046;13.692;2022-08-30T14:56:18;100551.38;;;41.75
70819;BMP280;58439;51.046;13.692;2022-08-30T14:58:50;100555.66;;;41.38
70819;BMP280;58439;51.046;13.692;2022-08-30T15:01:19;100544.97;;;41.47
70819;BMP280;58439;51.046;13.692;2022-08-30T15:03:46;100553.53;;;41.57
70819;BMP280;58439;51.046;13.692;2022-08-30T15:06:13;100544.94;;;41.06
70819;BMP280;58439;51.046;13.692;2022-08-30T15:08:45;100546.75;;;40.69
70819;BMP280;58439;51.046;13.692;2022-08-30T15:11:16;100548.31;;;40.66
70819;BMP280;58439;51.046;13.692;2022-08-30T15:13:43;100543.00;;;40.27
70819;BMP280;58439;51.046;13.692;2022-08-30T15:16:22;100540.97;;;40.42
70819;BMP280;58439;51.046;13.692;2022-08-30T15:18:50;100538.38;;;39.99
70819;BMP280;58439;51.046;13.692;2022-08-30T15:21:34;100537.97;;;38.73